Terminal Aerodrome Forecast
Issued by NWS Goodland, KS

Home | Current Version | Previous Version | Text Only | Print | Product List | Glossary On
Versions: 1 2 3 4 5 6 7 8 9 10 11 12 13 14 15 16 17 18 19 20 21 22
000
FTUS43 KGLD 241518 AAB
TAFGLD
TAF AMD
KGLD 241518Z 2415/2512 19004KT P6SM BKN200
     FM241800 04006KT P6SM VCTS SCT060CB BKN120
     FM250000 36010KT P6SM FEW120 SCT200
     FM250400 27007KT P6SM SCT120 SCT250=

USA.gov is the U.S. government's official web portal to all federal, state and local government web resources and services.